sensor_id;sensor_type;location;lat;lon;timestamp;pressure;altitude;pressure_sealevel;temperature;humidity
13765;BME280;6953;48.810;9.204;2023-06-04T00:00:44;98724.09;;;17.28;68.45
13765;BME280;6953;48.810;9.204;2023-06-04T00:03:10;98466.47;;;15.82;68.47
13765;BME280;6953;48.810;9.204;2023-06-04T00:05:35;98699.41;;;17.17;69.39
13765;BME280;6953;48.810;9.204;2023-06-04T00:08:01;98714.13;;;17.10;69.41
13765;BME280;6953;48.810;9.204;2023-06-04T00:10:26;98719.63;;;16.96;70.24
13765;BME280;6953;48.810;9.204;2023-06-04T00:12:51;98713.13;;;17.00;69.95
13765;BME280;6953;48.810;9.204;2023-06-04T00:15:17;98667.25;;;16.77;70.09
13765;BME280;6953;48.810;9.204;2023-06-04T00:17:43;98687.38;;;16.91;69.78
13765;BME280;6953;48.810;9.204;2023-06-04T00:20:09;98734.34;;;17.00;70.03
13765;BME280;6953;48.810;9.204;2023-06-04T00:22:35;98720.50;;;16.96;70.44
13765;BME280;6953;48.810;9.204;2023-06-04T00:25:00;98452.94;;;15.53;70.13
13765;BME280;6953;48.810;9.204;2023-06-04T00:27:26;98698.34;;;16.97;70.16
13765;BME280;6953;48.810;9.204;2023-06-04T00:29:51;98437.91;;;15.42;70.00
13765;BME280;6953;48.810;9.204;2023-06-04T00:32:16;98709.78;;;16.87;70.88
13765;BME280;6953;48.810;9.204;2023-06-04T00:34:42;98702.66;;;16.76;70.99
13765;BME280;6953;48.810;9.204;2023-06-04T00:37:07;98611.69;;;16.43;71.39
13765;BME280;6953;48.810;9.204;2023-06-04T00:39:32;98489.28;;;15.62;71.32
13765;BME280;6953;48.810;9.204;2023-06-04T00:41:59;98518.41;;;15.72;71.71
13765;BME280;6953;48.810;9.204;2023-06-04T00:44:25;98708.78;;;16.77;71.24
13765;BME280;6953;48.810;9.204;2023-06-04T00:46:51;98741.44;;;16.77;70.98
13765;BME280;6953;48.810;9.204;2023-06-04T00:49:19;98522.50;;;15.65;70.89
13765;BME280;6953;48.810;9.204;2023-06-04T00:51:44;98695.25;;;16.47;70.55
13765;BME280;6953;48.810;9.204;2023-06-04T00:54:11;98546.75;;;15.70;70.14
13765;BME280;6953;48.810;9.204;2023-06-04T00:56:38;98465.63;;;15.26;70.02
13765;BME280;6953;48.810;9.204;2023-06-04T00:59:07;98711.28;;;16.67;70.27
13765;BME280;6953;48.810;9.204;2023-06-04T01:01:42;98467.44;;;15.13;70.92
13765;BME280;6953;48.810;9.204;2023-06-04T01:04:16;98622.16;;;15.99;71.67
13765;BME280;6953;48.810;9.204;2023-06-04T01:06:45;98658.47;;;15.97;72.37
13765;BME280;6953;48.810;9.204;2023-06-04T01:09:13;98721.91;;;16.33;72.63
13765;BME280;6953;48.810;9.204;2023-06-04T01:11:39;98501.47;;;14.94;73.17
13765;BME280;6953;48.810;9.204;2023-06-04T01:14:07;98725.59;;;16.20;73.26
13765;BME280;6953;48.810;9.204;2023-06-04T01:16:38;98759.50;;;16.15;73.23
13765;BME280;6953;48.810;9.204;2023-06-04T01:19:13;98646.44;;;15.70;73.23
13765;BME280;6953;48.810;9.204;2023-06-04T01:21:48;98708.41;;;16.02;72.97
13765;BME280;6953;48.810;9.204;2023-06-04T01:24:17;98476.44;;;14.63;72.88
13765;BME280;6953;48.810;9.204;2023-06-04T01:26:45;98727.44;;;16.07;72.52
13765;BME280;6953;48.810;9.204;2023-06-04T01:29:11;98729.47;;;16.03;73.28
13765;BME280;6953;48.810;9.204;2023-06-04T01:31:37;98720.28;;;15.96;73.17
13765;BME280;6953;48.810;9.204;2023-06-04T01:34:03;98724.03;;;15.94;73.08
13765;BME280;6953;48.810;9.204;2023-06-04T01:36:28;98728.59;;;15.92;72.95
13765;BME280;6953;48.810;9.204;2023-06-04T01:38:54;98726.38;;;15.86;72.88
13765;BME280;6953;48.810;9.204;2023-06-04T01:41:19;98444.47;;;14.20;73.46
13765;BME280;6953;48.810;9.204;2023-06-04T01:43:45;98758.16;;;15.73;72.93
13765;BME280;6953;48.810;9.204;2023-06-04T01:46:10;98714.88;;;15.74;72.69
13765;BME280;6953;48.810;9.204;2023-06-04T01:48:35;98716.06;;;15.70;72.18
13765;BME280;6953;48.810;9.204;2023-06-04T01:51:01;98669.97;;;15.39;72.35
13765;BME280;6953;48.810;9.204;2023-06-04T01:53:27;98723.59;;;15.64;72.44
13765;BME280;6953;48.810;9.204;2023-06-04T01:55:52;98704.31;;;15.51;72.56
13765;BME280;6953;48.810;9.204;2023-06-04T01:58:18;98665.75;;;15.24;72.28
13765;BME280;6953;48.810;9.204;2023-06-04T02:00:49;98742.69;;;15.57;71.66
13765;BME280;6953;48.810;9.204;2023-06-04T02:03:15;98465.16;;;14.01;71.75
13765;BME280;6953;48.810;9.204;2023-06-04T02:05:40;98521.50;;;14.12;71.91
13765;BME280;6953;48.810;9.204;2023-06-04T02:08:06;98788.94;;;15.51;72.16
13765;BME280;6953;48.810;9.204;2023-06-04T02:10:31;98740.72;;;15.48;72.92
13765;BME280;6953;48.810;9.204;2023-06-04T02:12:59;98717.88;;;15.47;72.83
13765;BME280;6953;48.810;9.204;2023-06-04T02:15:26;98717.44;;;15.40;74.10
13765;BME280;6953;48.810;9.204;2023-06-04T02:17:59;98728.00;;;15.40;75.06
13765;BME280;6953;48.810;9.204;2023-06-04T02:20:28;98719.91;;;15.18;76.99
13765;BME280;6953;48.810;9.204;2023-06-04T02:22:56;98732.81;;;15.35;77.83
13765;BME280;6953;48.810;9.204;2023-06-04T02:25:22;98708.47;;;15.18;77.56
13765;BME280;6953;48.810;9.204;2023-06-04T02:27:48;98710.16;;;15.19;76.84
13765;BME280;6953;48.810;9.204;2023-06-04T02:30:13;98519.59;;;14.02;75.63
13765;BME280;6953;48.810;9.204;2023-06-04T02:32:38;98645.66;;;14.73;74.97
13765;BME280;6953;48.810;9.204;2023-06-04T02:35:04;98726.75;;;15.21;73.93
13765;BME280;6953;48.810;9.204;2023-06-04T02:37:30;98471.91;;;13.67;72.92
13765;BME280;6953;48.810;9.204;2023-06-04T02:39:55;98735.75;;;15.18;72.39
13765;BME280;6953;48.810;9.204;2023-06-04T02:42:21;98732.69;;;15.12;72.20
13765;BME280;6953;48.810;9.204;2023-06-04T02:44:46;98474.88;;;13.63;71.58
13765;BME280;6953;48.810;9.204;2023-06-04T02:47:11;98725.28;;;15.04;71.25
13765;BME280;6953;48.810;9.204;2023-06-04T02:49:36;98737.13;;;15.11;71.66
13765;BME280;6953;48.810;9.204;2023-06-04T02:52:02;98720.97;;;15.03;71.18
13765;BME280;6953;48.810;9.204;2023-06-04T02:54:27;98732.81;;;15.10;71.74
13765;BME280;6953;48.810;9.204;2023-06-04T02:56:53;98739.88;;;15.10;71.16
13765;BME280;6953;48.810;9.204;2023-06-04T02:59:18;98744.44;;;15.08;71.36
13765;BME280;6953;48.810;9.204;2023-06-04T03:01:44;98670.16;;;14.62;70.76
13765;BME280;6953;48.810;9.204;2023-06-04T03:04:09;98742.97;;;15.04;69.92
13765;BME280;6953;48.810;9.204;2023-06-04T03:06:36;98673.66;;;14.63;70.06
13765;BME280;6953;48.810;9.204;2023-06-04T03:09:04;98772.56;;;14.96;69.39
13765;BME280;6953;48.810;9.204;2023-06-04T03:11:30;98742.75;;;14.94;69.35
13765;BME280;6953;48.810;9.204;2023-06-04T03:13:55;98747.38;;;14.91;69.45
13765;BME280;6953;48.810;9.204;2023-06-04T03:16:21;98710.53;;;14.64;69.72
13765;BME280;6953;48.810;9.204;2023-06-04T03:18:46;98733.34;;;14.78;70.33
13765;BME280;6953;48.810;9.204;2023-06-04T03:21:11;98746.03;;;14.85;70.54
13765;BME280;6953;48.810;9.204;2023-06-04T03:23:37;98776.03;;;14.84;70.69
13765;BME280;6953;48.810;9.204;2023-06-04T03:26:04;98747.84;;;14.85;71.48
13765;BME280;6953;48.810;9.204;2023-06-04T03:28:30;98747.19;;;14.81;71.25
13765;BME280;6953;48.810;9.204;2023-06-04T03:30:55;98754.38;;;14.92;70.82
13765;BME280;6953;48.810;9.204;2023-06-04T03:33:21;98761.75;;;14.99;70.15
13765;BME280;6953;48.810;9.204;2023-06-04T03:35:46;98783.75;;;15.00;70.12
13765;BME280;6953;48.810;9.204;2023-06-04T03:38:13;98801.41;;;15.12;70.70
13765;BME280;6953;48.810;9.204;2023-06-04T03:40:40;98793.47;;;15.12;70.91
13765;BME280;6953;48.810;9.204;2023-06-04T03:43:05;98768.84;;;15.11;71.57
13765;BME280;6953;48.810;9.204;2023-06-04T03:45:31;98761.97;;;15.09;71.74
13765;BME280;6953;48.810;9.204;2023-06-04T03:47:56;98669.22;;;14.51;70.37
13765;BME280;6953;48.810;9.204;2023-06-04T03:50:22;98747.38;;;15.03;70.02
13765;BME280;6953;48.810;9.204;2023-06-04T03:52:50;98759.03;;;15.13;70.21
13765;BME280;6953;48.810;9.204;2023-06-04T03:55:16;98764.41;;;15.12;69.67
13765;BME280;6953;48.810;9.204;2023-06-04T03:57:41;98768.94;;;15.10;69.49
13765;BME280;6953;48.810;9.204;2023-06-04T04:00:08;98511.78;;;13.63;69.45
13765;BME280;6953;48.810;9.204;2023-06-04T04:02:37;98673.88;;;14.60;69.88
13765;BME280;6953;48.810;9.204;2023-06-04T04:05:02;98505.69;;;13.62;70.15
13765;BME280;6953;48.810;9.204;2023-06-04T04:07:28;98765.47;;;15.09;70.33
13765;BME280;6953;48.810;9.204;2023-06-04T04:09:53;98794.97;;;15.28;70.95
13765;BME280;6953;48.810;9.204;2023-06-04T04:12:18;98759.66;;;15.29;70.00
13765;BME280;6953;48.810;9.204;2023-06-04T04:14:44;98787.84;;;15.54;70.09
13765;BME280;6953;48.810;9.204;2023-06-04T04:17:09;98770.66;;;15.71;70.13
13765;BME280;6953;48.810;9.204;2023-06-04T04:19:35;98448.84;;;13.96;69.60
13765;BME280;6953;48.810;9.204;2023-06-04T04:22:01;98726.13;;;15.78;69.80
13765;BME280;6953;48.810;9.204;2023-06-04T04:24:27;98722.50;;;16.02;68.58
13765;BME280;6953;48.810;9.204;2023-06-04T04:26:53;98783.78;;;16.67;68.38
13765;BME280;6953;48.810;9.204;2023-06-04T04:29:22;98784.84;;;16.98;66.99
13765;BME280;6953;48.810;9.204;2023-06-04T04:31:51;98798.47;;;17.16;64.72
13765;BME280;6953;48.810;9.204;2023-06-04T04:34:17;98801.31;;;17.58;63.07
13765;BME280;6953;48.810;9.204;2023-06-04T04:36:45;98720.00;;;17.24;61.54
13765;BME280;6953;48.810;9.204;2023-06-04T04:39:17;98764.38;;;17.66;60.11
13765;BME280;6953;48.810;9.204;2023-06-04T04:41:42;98797.09;;;18.20;59.32
13765;BME280;6953;48.810;9.204;2023-06-04T04:44:08;98568.97;;;17.23;57.04
13765;BME280;6953;48.810;9.204;2023-06-04T04:46:33;98800.34;;;18.86;54.92
13765;BME280;6953;48.810;9.204;2023-06-04T04:48:58;98841.41;;;19.24;53.26
13765;BME280;6953;48.810;9.204;2023-06-04T04:51:24;98802.34;;;19.55;50.01
13765;BME280;6953;48.810;9.204;2023-06-04T04:53:49;98813.50;;;19.88;50.28
13765;BME280;6953;48.810;9.204;2023-06-04T04:56:14;98800.34;;;20.26;49.72
13765;BME280;6953;48.810;9.204;2023-06-04T04:58:40;98821.53;;;20.65;48.77
13765;BME280;6953;48.810;9.204;2023-06-04T05:01:05;98604.66;;;19.62;46.15
13765;BME280;6953;48.810;9.204;2023-06-04T05:03:31;98828.56;;;21.04;47.51
13765;BME280;6953;48.810;9.204;2023-06-04T05:05:56;98592.47;;;19.88;46.61
13765;BME280;6953;48.810;9.204;2023-06-04T05:08:21;98808.94;;;21.51;44.45
13765;BME280;6953;48.810;9.204;2023-06-04T05:10:47;98808.75;;;21.71;42.96
13765;BME280;6953;48.810;9.204;2023-06-04T05:13:12;98806.59;;;21.84;42.29
13765;BME280;6953;48.810;9.204;2023-06-04T05:15:38;98752.22;;;21.76;42.22
13765;BME280;6953;48.810;9.204;2023-06-04T05:18:05;98822.44;;;22.49;42.11
13765;BME280;6953;48.810;9.204;2023-06-04T05:20:30;98616.50;;;21.08;41.98
13765;BME280;6953;48.810;9.204;2023-06-04T05:22:55;98813.78;;;22.55;41.70
13765;BME280;6953;48.810;9.204;2023-06-04T05:25:21;98595.53;;;21.67;40.07
13765;BME280;6953;48.810;9.204;2023-06-04T05:27:47;98602.63;;;22.10;38.08
13765;BME280;6953;48.810;9.204;2023-06-04T05:30:14;98779.44;;;23.20;37.10
13765;BME280;6953;48.810;9.204;2023-06-04T05:32:40;98843.28;;;22.98;38.36
13765;BME280;6953;48.810;9.204;2023-06-04T05:35:06;98625.06;;;21.38;38.77
13765;BME280;6953;48.810;9.204;2023-06-04T05:37:33;98782.94;;;22.60;37.87
13765;BME280;6953;48.810;9.204;2023-06-04T05:40:00;98611.53;;;22.19;36.69
13765;BME280;6953;48.810;9.204;2023-06-04T05:42:25;98849.75;;;24.39;34.99
13765;BME280;6953;48.810;9.204;2023-06-04T05:44:51;98833.09;;;24.93;33.70
13765;BME280;6953;48.810;9.204;2023-06-04T05:47:17;98874.44;;;25.64;32.27
13765;BME280;6953;48.810;9.204;2023-06-04T05:49:43;98870.25;;;26.24;31.05
13765;BME280;6953;48.810;9.204;2023-06-04T05:52:08;98818.53;;;26.44;29.94
13765;BME280;6953;48.810;9.204;2023-06-04T05:54:34;98854.91;;;26.93;29.01
13765;BME280;6953;48.810;9.204;2023-06-04T05:56:59;98866.75;;;27.14;29.60
13765;BME280;6953;48.810;9.204;2023-06-04T05:59:25;98862.63;;;27.26;28.26
13765;BME280;6953;48.810;9.204;2023-06-04T06:01:50;98871.28;;;27.73;27.48
13765;BME280;6953;48.810;9.204;2023-06-04T06:04:15;98821.19;;;27.78;26.98
13765;BME280;6953;48.810;9.204;2023-06-04T06:06:42;98897.88;;;28.42;26.79
13765;BME280;6953;48.810;9.204;2023-06-04T06:09:14;98896.69;;;28.79;26.37
13765;BME280;6953;48.810;9.204;2023-06-04T06:11:40;98850.69;;;28.73;26.41
13765;BME280;6953;48.810;9.204;2023-06-04T06:14:05;98874.06;;;29.16;26.58
13765;BME280;6953;48.810;9.204;2023-06-04T06:16:31;98880.78;;;29.41;25.60
13765;BME280;6953;48.810;9.204;2023-06-04T06:18:57;98684.25;;;28.51;24.71
13765;BME280;6953;48.810;9.204;2023-06-04T06:21:22;98890.81;;;29.95;24.19
13765;BME280;6953;48.810;9.204;2023-06-04T06:23:48;98916.31;;;30.07;23.44
13765;BME280;6953;48.810;9.204;2023-06-04T06:26:13;98738.97;;;29.56;23.82
13765;BME280;6953;48.810;9.204;2023-06-04T06:28:39;98848.44;;;30.49;24.01
13765;BME280;6953;48.810;9.204;2023-06-04T06:31:04;98821.66;;;30.73;23.19
13765;BME280;6953;48.810;9.204;2023-06-04T06:33:29;98912.59;;;31.42;21.91
13765;BME280;6953;48.810;9.204;2023-06-04T06:35:56;98764.78;;;30.86;21.42
13765;BME280;6953;48.810;9.204;2023-06-04T06:38:22;98877.50;;;32.05;20.70
13765;BME280;6953;48.810;9.204;2023-06-04T06:40:47;98918.41;;;32.49;20.66
13765;BME280;6953;48.810;9.204;2023-06-04T06:43:13;98881.00;;;32.44;19.94
13765;BME280;6953;48.810;9.204;2023-06-04T06:45:38;98924.94;;;32.22;21.08
13765;BME280;6953;48.810;9.204;2023-06-04T06:48:03;98764.41;;;31.08;20.97
13765;BME280;6953;48.810;9.204;2023-06-04T06:50:29;98923.78;;;31.19;21.49
13765;BME280;6953;48.810;9.204;2023-06-04T06:52:54;98925.06;;;30.36;22.56
13765;BME280;6953;48.810;9.204;2023-06-04T06:55:20;98846.22;;;30.25;22.31
13765;BME280;6953;48.810;9.204;2023-06-04T06:57:45;98747.25;;;29.82;22.05
13765;BME280;6953;48.810;9.204;2023-06-04T07:00:11;98917.31;;;31.14;21.99
13765;BME280;6953;48.810;9.204;2023-06-04T07:02:36;98738.19;;;29.35;22.12
13765;BME280;6953;48.810;9.204;2023-06-04T07:05:02;98900.84;;;29.53;23.09
13765;BME280;6953;48.810;9.204;2023-06-04T07:07:27;98708.88;;;28.83;22.63
13765;BME280;6953;48.810;9.204;2023-06-04T07:09:53;98923.88;;;30.85;21.88
13765;BME280;6953;48.810;9.204;2023-06-04T07:12:18;98843.13;;;31.67;21.05
13765;BME280;6953;48.810;9.204;2023-06-04T07:14:44;98909.34;;;32.74;19.87
13765;BME280;6953;48.810;9.204;2023-06-04T07:17:10;98925.09;;;33.78;19.41
13765;BME280;6953;48.810;9.204;2023-06-04T07:19:35;98939.84;;;34.79;18.09
13765;BME280;6953;48.810;9.204;2023-06-04T07:22:01;98949.63;;;35.52;18.26
13765;BME280;6953;48.810;9.204;2023-06-04T07:24:26;98933.41;;;35.10;18.25
13765;BME280;6953;48.810;9.204;2023-06-04T07:26:51;98930.16;;;33.99;19.13
13765;BME280;6953;48.810;9.204;2023-06-04T07:29:17;98776.22;;;31.91;19.87
13765;BME280;6953;48.810;9.204;2023-06-04T07:31:42;98928.13;;;33.32;20.31
13765;BME280;6953;48.810;9.204;2023-06-04T07:34:08;98929.78;;;34.98;18.85
13765;BME280;6953;48.810;9.204;2023-06-04T07:36:33;98771.03;;;35.30;17.19
13765;BME280;6953;48.810;9.204;2023-06-04T07:38:59;98962.47;;;37.18;16.45
13765;BME280;6953;48.810;9.204;2023-06-04T07:41:25;98942.16;;;37.86;16.00
13765;BME280;6953;48.810;9.204;2023-06-04T07:43:51;98944.56;;;38.49;15.26
13765;BME280;6953;48.810;9.204;2023-06-04T07:46:17;98952.69;;;38.60;15.53
13765;BME280;6953;48.810;9.204;2023-06-04T07:48:45;98818.44;;;37.99;15.06
13765;BME280;6953;48.810;9.204;2023-06-04T07:51:12;98899.47;;;38.61;15.21
13765;BME280;6953;48.810;9.204;2023-06-04T07:53:37;98837.63;;;38.54;14.93
13765;BME280;6953;48.810;9.204;2023-06-04T07:56:03;98940.31;;;39.17;15.09
13765;BME280;6953;48.810;9.204;2023-06-04T07:58:28;98941.69;;;39.41;14.69
13765;BME280;6953;48.810;9.204;2023-06-04T08:00:54;98647.03;;;37.75;14.76
13765;BME280;6953;48.810;9.204;2023-06-04T08:03:19;98935.19;;;39.25;15.25
13765;BME280;6953;48.810;9.204;2023-06-04T08:05:45;98937.06;;;39.46;15.02
13765;BME280;6953;48.810;9.204;2023-06-04T08:08:11;98911.88;;;39.28;15.00
13765;BME280;6953;48.810;9.204;2023-06-04T08:10:36;98957.34;;;38.97;15.21
13765;BME280;6953;48.810;9.204;2023-06-04T08:13:01;98942.66;;;39.08;15.02
13765;BME280;6953;48.810;9.204;2023-06-04T08:15:27;98757.00;;;38.17;15.19
13765;BME280;6953;48.810;9.204;2023-06-04T08:17:53;98884.63;;;39.21;15.28
13765;BME280;6953;48.810;9.204;2023-06-04T08:20:18;98926.56;;;39.65;14.95
13765;BME280;6953;48.810;9.204;2023-06-04T08:22:44;98937.13;;;39.51;14.60
13765;BME280;6953;48.810;9.204;2023-06-04T08:25:09;98943.34;;;39.94;14.88
13765;BME280;6953;48.810;9.204;2023-06-04T08:27:35;98921.50;;;40.09;14.67
13765;BME280;6953;48.810;9.204;2023-06-04T08:30:00;98859.16;;;39.57;15.35
13765;BME280;6953;48.810;9.204;2023-06-04T08:32:27;98914.72;;;40.27;14.78
13765;BME280;6953;48.810;9.204;2023-06-04T08:34:52;98757.31;;;39.74;14.18
13765;BME280;6953;48.810;9.204;2023-06-04T08:37:17;98940.38;;;40.74;14.51
13765;BME280;6953;48.810;9.204;2023-06-04T08:39:43;98935.28;;;40.92;13.90
13765;BME280;6953;48.810;9.204;2023-06-04T08:42:38;98770.06;;;40.36;13.78
13765;BME280;6953;48.810;9.204;2023-06-04T08:45:00;98772.66;;;40.67;13.51
13765;BME280;6953;48.810;9.204;2023-06-04T08:47:28;98931.44;;;41.94;13.29
13765;BME280;6953;48.810;9.204;2023-06-04T08:50:00;98875.72;;;41.87;13.35
13765;BME280;6953;48.810;9.204;2023-06-04T08:52:26;98888.94;;;42.30;13.73
13765;BME280;6953;48.810;9.204;2023-06-04T08:54:53;98930.06;;;42.31;13.49
13765;BME280;6953;48.810;9.204;2023-06-04T08:57:19;98885.06;;;42.41;13.63
13765;BME280;6953;48.810;9.204;2023-06-04T08:59:45;98779.44;;;41.91;13.51
13765;BME280;6953;48.810;9.204;2023-06-04T09:02:14;98839.53;;;42.33;12.59
13765;BME280;6953;48.810;9.204;2023-06-04T09:04:40;98929.09;;;42.96;12.61
13765;BME280;6953;48.810;9.204;2023-06-04T09:07:08;98776.53;;;42.45;12.47
13765;BME280;6953;48.810;9.204;2023-06-04T09:09:39;98889.44;;;43.30;12.39
13765;BME280;6953;48.810;9.204;2023-06-04T09:12:08;98939.34;;;43.58;12.03
13765;BME280;6953;48.810;9.204;2023-06-04T09:14:35;98928.50;;;43.09;12.60
13765;BME280;6953;48.810;9.204;2023-06-04T09:17:01;98934.03;;;43.09;12.45
13765;BME280;6953;48.810;9.204;2023-06-04T09:19:26;98926.66;;;42.89;12.62
13765;BME280;6953;48.810;9.204;2023-06-04T09:21:56;98797.63;;;42.02;12.60
13765;BME280;6953;48.810;9.204;2023-06-04T09:24:24;98929.88;;;43.06;12.67
13765;BME280;6953;48.810;9.204;2023-06-04T09:26:50;98788.88;;;42.68;12.55
13765;BME280;6953;48.810;9.204;2023-06-04T09:29:17;98933.75;;;43.10;12.72
13765;BME280;6953;48.810;9.204;2023-06-04T09:31:46;98922.69;;;43.10;12.80
13765;BME280;6953;48.810;9.204;2023-06-04T09:34:12;98777.63;;;42.54;11.89
13765;BME280;6953;48.810;9.204;2023-06-04T09:36:38;98924.28;;;44.13;12.00
13765;BME280;6953;48.810;9.204;2023-06-04T09:39:15;98875.56;;;44.12;11.42
13765;BME280;6953;48.810;9.204;2023-06-04T09:41:40;98930.44;;;44.90;11.68
13765;BME280;6953;48.810;9.204;2023-06-04T09:44:06;98925.59;;;45.00;11.26
13765;BME280;6953;48.810;9.204;2023-06-04T09:46:36;98881.81;;;45.21;10.78
13765;BME280;6953;48.810;9.204;2023-06-04T09:49:03;98922.44;;;45.12;10.93
13765;BME280;6953;48.810;9.204;2023-06-04T09:51:30;98919.06;;;44.68;11.52
13765;BME280;6953;48.810;9.204;2023-06-04T09:53:57;98937.31;;;44.92;10.82
13765;BME280;6953;48.810;9.204;2023-06-04T09:56:23;98917.44;;;44.85;11.12
13765;BME280;6953;48.810;9.204;2023-06-04T09:58:49;98881.13;;;44.63;10.53
13765;BME280;6953;48.810;9.204;2023-06-04T10:01:15;98929.69;;;44.84;10.51
13765;BME280;6953;48.810;9.204;2023-06-04T10:03:44;98914.88;;;45.36;10.17
13765;BME280;6953;48.810;9.204;2023-06-04T10:06:14;98775.38;;;44.56;10.88
13765;BME280;6953;48.810;9.204;2023-06-04T10:08:42;98807.84;;;45.35;10.04
13765;BME280;6953;48.810;9.204;2023-06-04T10:11:08;98930.66;;;46.59;9.74
13765;BME280;6953;48.810;9.204;2023-06-04T10:13:42;98770.94;;;45.52;9.86
13765;BME280;6953;48.810;9.204;2023-06-04T10:16:11;98924.59;;;46.57;10.06
13765;BME280;6953;48.810;9.204;2023-06-04T10:18:37;98855.47;;;46.24;9.45
13765;BME280;6953;48.810;9.204;2023-06-04T10:21:03;98924.47;;;46.17;9.57
13765;BME280;6953;48.810;9.204;2023-06-04T10:23:29;98919.25;;;45.97;10.16
13765;BME280;6953;48.810;9.204;2023-06-04T10:25:54;98924.41;;;45.48;9.52
13765;BME280;6953;48.810;9.204;2023-06-04T10:28:22;98917.84;;;45.44;9.67
13765;BME280;6953;48.810;9.204;2023-06-04T10:30:48;98928.63;;;45.64;10.42
13765;BME280;6953;48.810;9.204;2023-06-04T10:33:20;98894.28;;;45.60;10.13
13765;BME280;6953;48.810;9.204;2023-06-04T10:35:49;98904.56;;;46.10;9.47
13765;BME280;6953;48.810;9.204;2023-06-04T10:38:14;98901.84;;;46.55;9.47
13765;BME280;6953;48.810;9.204;2023-06-04T10:40:42;98748.47;;;46.26;9.37
13765;BME280;6953;48.810;9.204;2023-06-04T10:43:12;98904.00;;;47.39;9.43
13765;BME280;6953;48.810;9.204;2023-06-04T10:45:38;98853.56;;;46.91;9.02
13765;BME280;6953;48.810;9.204;2023-06-04T10:48:07;98895.06;;;47.15;8.99
13765;BME280;6953;48.810;9.204;2023-06-04T10:50:34;98767.91;;;46.40;9.02
13765;BME280;6953;48.810;9.204;2023-06-04T10:53:00;98896.84;;;47.60;8.89
13765;BME280;6953;48.810;9.204;2023-06-04T10:55:31;98911.63;;;48.04;8.34
13765;BME280;6953;48.810;9.204;2023-06-04T10:57:58;98916.28;;;48.17;7.95
13765;BME280;6953;48.810;9.204;2023-06-04T11:00:37;98925.38;;;47.65;8.73
13765;BME280;6953;48.810;9.204;2023-06-04T11:03:05;98912.50;;;47.69;9.01
13765;BME280;6953;48.810;9.204;2023-06-04T11:08:05;98909.31;;;47.49;9.07
13765;BME280;6953;48.810;9.204;2023-06-04T11:10:36;98848.53;;;46.66;9.14
13765;BME280;6953;48.810;9.204;2023-06-04T11:13:02;98791.56;;;46.10;9.30
13765;BME280;6953;48.810;9.204;2023-06-04T11:15:49;98895.19;;;46.38;9.21
13765;BME280;6953;48.810;9.204;2023-06-04T11:18:15;98895.56;;;46.76;8.94
13765;BME280;6953;48.810;9.204;2023-06-04T11:20:41;98748.06;;;46.46;9.02
13765;BME280;6953;48.810;9.204;2023-06-04T11:23:11;98902.38;;;47.11;9.28
13765;BME280;6953;48.810;9.204;2023-06-04T11:25:37;98897.53;;;47.65;8.63
13765;BME280;6953;48.810;9.204;2023-06-04T11:28:02;98866.28;;;47.19;8.73
13765;BME280;6953;48.810;9.204;2023-06-04T11:30:28;98859.88;;;47.32;9.20
13765;BME280;6953;48.810;9.204;2023-06-04T11:33:04;98758.88;;;46.34;9.27
13765;BME280;6953;48.810;9.204;2023-06-04T11:35:30;98752.06;;;46.67;8.50
13765;BME280;6953;48.810;9.204;2023-06-04T11:37:57;98894.03;;;47.95;8.84
13765;BME280;6953;48.810;9.204;2023-06-04T11:40:23;98832.44;;;47.75;8.52
13765;BME280;6953;48.810;9.204;2023-06-04T11:42:50;98900.84;;;47.89;8.40
13765;BME280;6953;48.810;9.204;2023-06-04T11:45:17;98711.13;;;46.94;8.33
13765;BME280;6953;48.810;9.204;2023-06-04T11:47:50;98860.16;;;47.79;8.28
13765;BME280;6953;48.810;9.204;2023-06-04T11:50:16;98886.34;;;47.78;8.34
13765;BME280;6953;48.810;9.204;2023-06-04T11:52:42;98892.28;;;47.01;8.66
13765;BME280;6953;48.810;9.204;2023-06-04T11:55:11;98760.91;;;46.42;8.38
13765;BME280;6953;48.810;9.204;2023-06-04T11:57:38;98899.13;;;47.58;8.07
13765;BME280;6953;48.810;9.204;2023-06-04T12:00:05;98898.53;;;47.34;8.60
13765;BME280;6953;48.810;9.204;2023-06-04T12:02:35;98884.44;;;47.87;8.41
13765;BME280;6953;48.810;9.204;2023-06-04T12:05:11;98895.00;;;47.55;8.26
13765;BME280;6953;48.810;9.204;2023-06-04T12:07:36;98891.22;;;46.70;8.75
13765;BME280;6953;48.810;9.204;2023-06-04T12:10:08;98887.13;;;46.68;8.15
13765;BME280;6953;48.810;9.204;2023-06-04T12:12:34;98859.41;;;46.50;9.14
13765;BME280;6953;48.810;9.204;2023-06-04T12:15:00;98882.69;;;46.80;8.63
13765;BME280;6953;48.810;9.204;2023-06-04T12:17:26;98737.53;;;45.57;8.52
13765;BME280;6953;48.810;9.204;2023-06-04T12:19:51;98875.41;;;46.84;8.74
13765;BME280;6953;48.810;9.204;2023-06-04T12:22:17;98720.28;;;46.33;8.48
13765;BME280;6953;48.810;9.204;2023-06-04T12:24:50;98849.75;;;46.61;8.80
13765;BME280;6953;48.810;9.204;2023-06-04T12:27:20;98870.44;;;46.81;8.62
13765;BME280;6953;48.810;9.204;2023-06-04T12:29:59;98834.03;;;47.32;8.31
13765;BME280;6953;48.810;9.204;2023-06-04T12:32:25;98718.16;;;47.14;7.84
13765;BME280;6953;48.810;9.204;2023-06-04T12:34:51;98725.53;;;46.48;8.12
13765;BME280;6953;48.810;9.204;2023-06-04T12:37:16;98818.81;;;47.16;7.63
13765;BME280;6953;48.810;9.204;2023-06-04T12:39:42;98736.59;;;46.74;8.04
13765;BME280;6953;48.810;9.204;2023-06-04T12:42:08;98869.19;;;47.85;7.84
13765;BME280;6953;48.810;9.204;2023-06-04T12:44:35;98852.50;;;47.63;8.02
13765;BME280;6953;48.810;9.204;2023-06-04T12:47:02;98892.91;;;47.82;7.76
13765;BME280;6953;48.810;9.204;2023-06-04T12:49:28;98864.22;;;47.95;7.47
13765;BME280;6953;48.810;9.204;2023-06-04T12:51:53;98874.97;;;48.10;7.42
13765;BME280;6953;48.810;9.204;2023-06-04T12:54:18;98882.72;;;47.43;8.17
13765;BME280;6953;48.810;9.204;2023-06-04T12:56:44;98867.66;;;46.81;8.05
13765;BME280;6953;48.810;9.204;2023-06-04T12:59:09;98808.22;;;46.10;8.23
13765;BME280;6953;48.810;9.204;2023-06-04T13:01:35;98861.72;;;46.88;8.68
13765;BME280;6953;48.810;9.204;2023-06-04T13:04:02;98791.06;;;46.89;8.07
13765;BME280;6953;48.810;9.204;2023-06-04T13:06:28;98805.16;;;46.92;8.35
13765;BME280;6953;48.810;9.204;2023-06-04T13:08:53;98852.31;;;46.84;8.03
13765;BME280;6953;48.810;9.204;2023-06-04T13:11:19;98863.03;;;46.50;8.19